createdAt,value
2019-04-07T00:00:42.620Z,99.90
2019-04-07T00:03:43.663Z,99.90
2019-04-07T00:06:25.896Z,99.90
2019-04-07T00:09:35.540Z,99.90
2019-04-07T00:12:41.270Z,99.90
2019-04-07T00:15:23.185Z,99.90
2019-04-07T00:18:09.517Z,99.90
2019-04-07T00:20:55.197Z,99.90
2019-04-07T00:23:41.715Z,99.90
2019-04-07T00:26:23.910Z,99.90
2019-04-07T00:29:15.563Z,99.90
2019-04-07T00:31:57.524Z,99.90
2019-04-07T00:34:47.131Z,99.90
2019-04-07T00:37:27.463Z,99.90
2019-04-07T00:40:08.685Z,99.90
2019-04-07T00:42:51.249Z,99.90
2019-04-07T00:45:33.778Z,99.90
2019-04-07T00:48:17.152Z,99.90
2019-04-07T00:51:02.025Z,99.90
2019-04-07T00:53:44.312Z,99.90
2019-04-07T00:56:26.949Z,99.90
2019-04-07T00:59:07.618Z,99.90
2019-04-07T01:01:57.957Z,99.90
2019-04-07T01:04:48.248Z,99.90
2019-04-07T01:07:29.989Z,99.90
2019-04-07T01:10:08.883Z,99.90
2019-04-07T01:12:50.102Z,99.90
2019-04-07T01:15:35.663Z,99.90
2019-04-07T01:18:26.961Z,99.90
2019-04-07T01:21:13.838Z,99.90
2019-04-07T01:23:57.837Z,99.90
2019-04-07T01:26:44.950Z,99.90
2019-04-07T01:29:35.333Z,99.90
2019-04-07T01:32:16.725Z,99.90
2019-04-07T01:34:57.039Z,99.90
2019-04-07T01:37:40.726Z,99.90
2019-04-07T01:40:31.137Z,99.90
2019-04-07T01:43:22.691Z,99.90
2019-04-07T01:46:09.936Z,99.90
2019-04-07T01:48:59.553Z,99.90
2019-04-07T01:52:04.169Z,99.90
2019-04-07T01:54:47.257Z,99.90
2019-04-07T01:57:49.849Z,99.90
2019-04-07T02:00:43.390Z,99.90
2019-04-07T02:03:35.693Z,99.90
2019-04-07T02:06:33.334Z,99.90
2019-04-07T02:09:15.193Z,99.90
2019-04-07T02:12:04.773Z,99.90
2019-04-07T02:15:01.063Z,99.90
2019-04-07T02:17:47.148Z,99.90
2019-04-07T02:20:46.572Z,99.90
2019-04-07T02:23:37.335Z,99.90
2019-04-07T02:26:22.670Z,99.90
2019-04-07T02:29:11.860Z,99.90
2019-04-07T02:31:50.068Z,99.90
2019-04-07T02:34:38.067Z,99.90
2019-04-07T02:37:39.386Z,99.90
2019-04-07T02:40:43.429Z,99.90
2019-04-07T02:43:34.154Z,99.90
2019-04-07T02:46:33.444Z,99.90
2019-04-07T02:49:28.519Z,99.90
2019-04-07T02:52:19.294Z,99.90
2019-04-07T02:55:06.284Z,99.90
2019-04-07T02:58:04.655Z,99.90
2019-04-07T03:00:48.520Z,99.90
2019-04-07T03:03:34.901Z,99.90
2019-04-07T03:06:45.785Z,99.90
2019-04-07T03:09:21.841Z,99.90
2019-04-07T03:12:13.773Z,99.90
2019-04-07T03:15:11.850Z,99.90
2019-04-07T03:18:01.149Z,99.90
2019-04-07T03:20:56.069Z,99.90
2019-04-07T03:23:51.461Z,99.90
2019-04-07T03:26:33.674Z,99.90
2019-04-07T03:29:38.412Z,99.90
2019-04-07T03:32:38.864Z,99.90
2019-04-07T03:35:25.952Z,99.90
2019-04-07T03:38:19.199Z,99.90
2019-04-07T03:41:16.238Z,99.90
2019-04-07T03:44:03.328Z,99.90
2019-04-07T03:47:05.240Z,99.90
2019-04-07T03:49:47.820Z,99.90
2019-04-07T03:52:33.989Z,99.90
2019-04-07T03:55:15.266Z,99.90
2019-04-07T03:58:19.687Z,99.90
2019-04-07T04:01:21.952Z,99.90
2019-04-07T04:04:02.210Z,99.90
2019-04-07T04:06:51.518Z,99.90
2019-04-07T04:09:41.280Z,99.90
2019-04-07T04:12:39.954Z,99.90
2019-04-07T04:15:22.111Z,99.90
2019-04-07T04:17:59.518Z,99.90
2019-04-07T04:20:37.273Z,99.90
2019-04-07T04:23:17.830Z,99.90
2019-04-07T04:26:09.659Z,99.90
2019-04-07T04:28:56.572Z,99.90
2019-04-07T04:31:37.129Z,99.90
2019-04-07T04:34:27.936Z,99.90
2019-04-07T04:37:12.581Z,99.90
2019-04-07T04:40:07.581Z,99.90
2019-04-07T04:42:52.088Z,99.90
2019-04-07T04:45:40.539Z,99.90
2019-04-07T04:48:20.659Z,99.90
2019-04-07T04:50:59.883Z,99.90
2019-04-07T04:53:45.583Z,99.90
2019-04-07T04:56:37.778Z,99.90
2019-04-07T04:59:24.055Z,99.90
2019-04-07T05:02:03.266Z,99.90
2019-04-07T05:04:40.622Z,99.90
2019-04-07T05:07:19.731Z,99.90
2019-04-07T05:10:00.005Z,99.90
2019-04-07T05:12:37.931Z,99.90
2019-04-07T05:15:15.087Z,99.90
2019-04-07T05:17:52.249Z,99.90
2019-04-07T05:20:29.427Z,99.90
2019-04-07T05:23:06.518Z,99.90
2019-04-07T05:25:43.794Z,99.90
2019-04-07T05:28:21.239Z,99.90
2019-04-07T05:30:59.080Z,99.90
2019-04-07T05:33:36.672Z,99.90
2019-04-07T05:36:14.743Z,99.90
2019-04-07T05:38:52.034Z,99.90
2019-04-07T05:41:29.619Z,99.90
2019-04-07T05:44:06.734Z,99.90
2019-04-07T05:46:46.389Z,99.90
2019-04-07T05:49:27.047Z,99.90
2019-04-07T05:52:06.925Z,99.90
2019-04-07T05:54:49.561Z,99.90
2019-04-07T05:57:30.782Z,99.90
2019-04-07T06:00:14.586Z,99.90
2019-04-07T06:02:50.783Z,99.90
2019-04-07T06:05:28.160Z,99.90
2019-04-07T06:08:21.040Z,99.90
2019-04-07T06:10:44.637Z,99.90
2019-04-07T06:13:22.469Z,99.90
2019-04-07T06:15:59.730Z,99.90
2019-04-07T06:18:36.927Z,99.90
2019-04-07T06:21:15.509Z,99.90
2019-04-07T06:23:55.361Z,99.90
2019-04-07T06:26:33.038Z,99.90
2019-04-07T06:29:10.489Z,99.90
2019-04-07T06:31:48.304Z,99.90
2019-04-07T06:34:28.134Z,99.90
2019-04-07T06:37:05.656Z,99.90
2019-04-07T06:39:42.825Z,99.90
2019-04-07T06:42:22.039Z,99.90
2019-04-07T06:45:00.387Z,99.90
2019-04-07T06:47:39.772Z,99.90
2019-04-07T06:50:18.978Z,99.90
2019-04-07T06:53:01.071Z,99.90
2019-04-07T06:55:51.578Z,99.90
2019-04-07T06:58:31.052Z,99.90
2019-04-07T07:01:26.629Z,99.90
2019-04-07T07:04:21.135Z,99.90
2019-04-07T07:07:00.590Z,99.90
2019-04-07T07:09:42.806Z,99.90
2019-04-07T07:12:35.013Z,99.90
2019-04-07T07:15:19.144Z,99.90
2019-04-07T07:18:15.441Z,99.70
2019-04-07T07:21:01.000Z,99.40
2019-04-07T07:23:38.582Z,99.10
2019-04-07T07:26:15.962Z,98.70
2019-04-07T07:28:53.126Z,98.20
2019-04-07T07:31:30.355Z,97.40
2019-04-07T07:34:09.275Z,96.00
2019-04-07T07:36:47.078Z,94.60
2019-04-07T07:39:26.253Z,93.60
2019-04-07T07:42:28.912Z,91.90
2019-04-07T07:45:11.842Z,91.30
2019-04-07T07:47:51.348Z,90.70
2019-04-07T07:50:30.048Z,89.90
2019-04-07T07:53:07.905Z,89.20
2019-04-07T07:55:45.559Z,86.40
2019-04-07T07:58:23.583Z,82.40
2019-04-07T08:01:01.470Z,79.10
2019-04-07T08:03:39.334Z,81.30
2019-04-07T08:06:19.409Z,79.60
2019-04-07T08:09:07.410Z,80.70
2019-04-07T08:11:37.301Z,81.10
2019-04-07T08:14:17.792Z,79.10
2019-04-07T08:16:55.878Z,74.20
2019-04-07T08:19:33.563Z,73.20
2019-04-07T08:22:11.644Z,73.50
2019-04-07T08:24:51.138Z,73.80
2019-04-07T08:27:31.222Z,73.70
2019-04-07T09:00:33.628Z,74.40
2019-04-07T09:03:16.374Z,74.20
2019-04-07T09:05:57.386Z,75.10
2019-04-07T09:08:40.998Z,75.30
2019-04-07T09:11:22.470Z,75.20
2019-04-07T09:14:04.233Z,75.30
2019-04-07T09:16:59.868Z,76.50
2019-04-07T09:19:48.050Z,76.00
2019-04-07T09:22:33.074Z,75.80
2019-04-07T09:27:54.022Z,75.50
2019-04-07T09:30:48.470Z,77.10
2019-04-07T09:33:30.866Z,77.60
2019-04-07T09:36:19.553Z,78.90
2019-04-07T09:39:01.861Z,78.50
2019-04-07T09:41:48.556Z,76.00
2019-04-07T09:44:34.207Z,76.30
2019-04-07T09:47:29.210Z,75.50
2019-04-07T09:50:32.907Z,75.20
2019-04-07T09:53:21.390Z,74.00
2019-04-07T09:56:08.604Z,74.40
2019-04-07T09:58:50.285Z,73.90
2019-04-07T10:01:29.765Z,75.70
2019-04-07T10:04:08.755Z,75.70
2019-04-07T10:06:49.635Z,76.30
2019-04-07T10:09:28.603Z,75.60
2019-04-07T10:12:16.174Z,78.80
2019-04-07T10:14:59.748Z,79.90
2019-04-07T10:17:43.635Z,78.30
2019-04-07T10:20:36.943Z,77.70
2019-04-07T10:23:25.279Z,78.00
2019-04-07T10:26:04.232Z,78.50
2019-04-07T10:28:44.102Z,78.00
2019-04-07T10:31:40.910Z,79.00
2019-04-07T10:34:37.465Z,77.20
2019-04-07T10:37:19.766Z,77.40
2019-04-07T10:40:21.824Z,76.30
2019-04-07T10:43:08.481Z,76.60
2019-04-07T10:46:20.331Z,76.50
2019-04-07T10:49:18.068Z,76.60
2019-04-07T10:52:16.964Z,74.50
2019-04-07T10:55:33.028Z,71.70
2019-04-07T10:58:29.680Z,72.30
2019-04-07T11:01:24.535Z,71.70
2019-04-07T11:04:03.893Z,71.40
2019-04-07T11:06:54.851Z,73.60
2019-04-07T11:09:49.935Z,73.10
2019-04-07T11:12:28.855Z,74.10
2019-04-07T11:15:23.692Z,74.80
2019-04-07T11:18:17.481Z,71.40
2019-04-07T11:21:05.242Z,71.40
2019-04-07T11:23:50.407Z,70.60
2019-04-07T11:26:35.300Z,71.20
2019-04-07T11:29:17.730Z,70.50
2019-04-07T11:32:12.897Z,70.90
2019-04-07T11:35:00.323Z,69.70
2019-04-07T11:37:42.770Z,69.00
2019-04-07T11:40:45.250Z,67.80
2019-04-07T11:43:35.925Z,65.60
2019-04-07T11:46:22.048Z,61.60
2019-04-07T11:49:19.509Z,58.20
2019-04-07T11:52:08.236Z,57.00
2019-04-07T11:54:49.981Z,59.10
2019-04-07T11:57:29.053Z,59.30
2019-04-07T12:00:12.904Z,59.40
2019-04-07T12:02:59.544Z,59.30
2019-04-07T12:05:40.807Z,55.80
2019-04-07T12:08:35.206Z,56.90
2019-04-07T12:11:37.174Z,57.70
2019-04-07T12:14:25.641Z,57.70
2019-04-07T12:17:09.326Z,58.20
2019-04-07T12:19:58.057Z,58.00
2019-04-07T12:22:49.358Z,57.10
2019-04-07T12:25:38.455Z,55.50
2019-04-07T12:28:41.258Z,54.40
2019-04-07T12:31:29.556Z,55.20
2019-04-07T12:34:16.751Z,56.10
2019-04-07T12:40:22.251Z,56.40
2019-04-07T12:42:59.875Z,57.10
2019-04-07T12:45:59.360Z,56.00
2019-04-07T12:49:09.827Z,55.80
2019-04-07T12:51:54.993Z,56.30
2019-04-07T12:54:41.387Z,55.90
2019-04-07T12:57:18.835Z,57.20
2019-04-07T13:00:14.645Z,59.10
2019-04-07T13:03:02.871Z,58.70
2019-04-07T13:05:44.986Z,59.00
2019-04-07T13:08:30.581Z,60.40
2019-04-07T13:11:26.437Z,60.40
2019-04-07T13:14:12.113Z,59.90
2019-04-07T13:17:00.186Z,60.40
2019-04-07T13:19:41.828Z,60.20
2019-04-07T13:22:20.424Z,61.10
2019-04-07T13:25:18.809Z,59.90
2019-04-07T13:28:03.183Z,61.10
2019-04-07T13:30:43.315Z,60.00
2019-04-07T13:33:27.156Z,59.40
2019-04-07T13:36:03.228Z,59.00
2019-04-07T13:38:43.046Z,60.30
2019-04-07T13:41:38.719Z,59.20
2019-04-07T13:44:16.190Z,59.20
2019-04-07T13:47:08.571Z,59.00
2019-04-07T13:49:48.548Z,58.50
2019-04-07T13:52:42.519Z,57.70
2019-04-07T13:55:34.710Z,58.10
2019-04-07T13:58:20.848Z,58.20
2019-04-07T14:01:18.576Z,56.50
2019-04-07T14:04:08.981Z,57.30
2019-04-07T14:06:50.584Z,54.70
2019-04-07T14:09:32.600Z,54.40
2019-04-07T14:12:18.060Z,54.80
2019-04-07T14:15:14.202Z,54.60
2019-04-07T14:17:53.635Z,52.20
2019-04-07T14:20:36.440Z,52.60
2019-04-07T14:23:22.526Z,52.90
2019-04-07T14:26:03.546Z,53.90
2019-04-07T14:28:43.983Z,52.40
2019-04-07T14:31:39.020Z,53.20
2019-04-07T14:34:18.792Z,54.60
2019-04-07T14:36:57.861Z,52.00
2019-04-07T14:39:53.430Z,53.20
2019-04-07T14:42:39.541Z,53.70
2019-04-07T14:45:30.649Z,53.30
2019-04-07T14:48:29.415Z,52.40
2019-04-07T14:51:08.752Z,53.30
2019-04-07T14:53:54.075Z,53.20
2019-04-07T14:56:50.195Z,54.10
2019-04-07T14:59:35.118Z,54.30
2019-04-07T15:02:15.473Z,54.30
2019-04-07T15:04:58.369Z,53.40
2019-04-07T15:07:40.862Z,53.70
2019-04-07T15:10:20.497Z,53.60
2019-04-07T15:13:03.214Z,53.80
2019-04-07T15:15:41.789Z,55.90
2019-04-07T15:18:19.769Z,54.60
2019-04-07T15:20:57.303Z,55.00
2019-04-07T15:23:34.545Z,55.60
2019-04-07T15:26:14.506Z,54.40
2019-04-07T15:28:51.185Z,55.50
2019-04-07T15:31:28.530Z,54.00
2019-04-07T15:34:08.665Z,54.40
2019-04-07T15:36:48.033Z,55.30
2019-04-07T15:39:28.006Z,55.20
2019-04-07T15:42:05.206Z,54.60
2019-04-07T15:44:43.656Z,54.90
2019-04-07T15:47:22.220Z,54.70
2019-04-07T15:50:00.445Z,55.30
2019-04-07T15:52:43.709Z,54.70
2019-04-07T15:55:19.534Z,54.50
2019-04-07T15:57:58.412Z,54.60
2019-04-07T16:00:36.129Z,54.90
2019-04-07T16:03:16.642Z,54.80
2019-04-07T16:05:56.415Z,55.00
2019-04-07T16:08:33.815Z,55.30
2019-04-07T16:11:11.541Z,55.50
2019-04-07T16:13:49.526Z,55.50
2019-04-07T16:16:29.145Z,55.40
2019-04-07T16:19:06.743Z,55.20
2019-04-07T16:21:45.517Z,54.70
2019-04-07T16:24:25.836Z,55.40
2019-04-07T16:27:06.541Z,55.70
2019-04-07T16:29:46.140Z,55.90
2019-04-07T16:32:24.188Z,57.30
2019-04-07T16:35:01.724Z,57.60
2019-04-07T16:37:39.458Z,56.70
2019-04-07T16:40:18.417Z,58.60
2019-04-07T16:43:09.292Z,58.90
2019-04-07T16:45:34.746Z,59.50
2019-04-07T16:48:12.876Z,58.20
2019-04-07T16:50:53.678Z,58.80
2019-04-07T16:53:30.929Z,59.60
2019-04-07T16:56:08.936Z,59.50
2019-04-07T16:58:50.185Z,60.30
2019-04-07T17:01:31.698Z,60.60
2019-04-07T17:04:09.731Z,61.70
2019-04-07T17:06:59.111Z,63.20
2019-04-07T17:09:29.106Z,62.80
2019-04-07T17:12:10.961Z,63.30
2019-04-07T17:14:49.215Z,63.80
2019-04-07T17:17:27.111Z,64.30
2019-04-07T17:20:06.952Z,67.40
2019-04-07T17:22:48.186Z,66.90
2019-04-07T17:25:25.563Z,67.30
2019-04-07T17:28:04.047Z,67.70
2019-04-07T17:30:41.747Z,69.60
2019-04-07T17:33:20.908Z,71.90
2019-04-07T17:35:59.165Z,71.30
2019-04-07T17:38:41.197Z,72.10
2019-04-07T17:41:21.445Z,71.00
2019-04-07T17:44:03.055Z,71.20
2019-04-07T17:46:57.896Z,72.80
2019-04-07T17:49:44.188Z,71.70
2019-04-07T17:52:32.252Z,73.00
2019-04-07T17:55:29.929Z,74.70
2019-04-07T17:58:17.896Z,74.70
2019-04-07T18:00:56.752Z,74.70
2019-04-07T18:03:51.924Z,76.40
2019-04-07T18:06:36.639Z,77.00
2019-04-07T18:09:30.950Z,77.30
2019-04-07T18:12:13.891Z,77.50
2019-04-07T18:14:57.049Z,78.70
2019-04-07T18:17:37.494Z,78.90
2019-04-07T18:20:17.865Z,79.00
2019-04-07T18:23:14.864Z,79.90
2019-04-07T18:26:14.432Z,80.40
2019-04-07T18:28:58.482Z,80.40
2019-04-07T18:31:55.631Z,80.40
2019-04-07T18:34:33.836Z,82.60
2019-04-07T18:37:29.046Z,82.30
2019-04-07T18:40:28.240Z,83.40
2019-04-07T18:43:08.037Z,84.00
2019-04-07T18:45:54.645Z,84.60
2019-04-07T18:48:45.841Z,84.90
2019-04-07T18:51:47.138Z,87.00
2019-04-07T18:54:23.115Z,87.90
2019-04-07T18:57:20.557Z,87.60
2019-04-07T19:00:14.856Z,87.70
2019-04-07T19:03:14.412Z,88.80
2019-04-07T19:05:54.222Z,90.40
2019-04-07T19:08:46.310Z,89.90
2019-04-07T19:11:42.780Z,90.10
2019-04-07T19:14:44.276Z,90.10
2019-04-07T19:17:21.701Z,90.60
2019-04-07T19:20:05.277Z,90.70
2019-04-07T19:22:58.214Z,90.80
2019-04-07T19:25:44.436Z,90.90
2019-04-07T19:28:37.181Z,91.30
2019-04-07T19:31:22.198Z,91.40
2019-04-07T19:34:02.312Z,92.50
2019-04-07T19:36:58.522Z,92.20
2019-04-07T19:39:43.818Z,92.20
2019-04-07T19:42:32.874Z,91.90
2019-04-07T19:45:30.699Z,91.90
2019-04-07T19:48:43.651Z,92.40
2019-04-07T19:51:34.475Z,93.80
2019-04-07T19:54:18.045Z,93.70
2019-04-07T19:57:05.935Z,93.60
2019-04-07T20:00:02.566Z,93.30
2019-04-07T20:02:44.643Z,92.60
2019-04-07T20:05:23.968Z,92.80
2019-04-07T20:08:05.760Z,92.90
2019-04-07T20:10:44.757Z,92.90
2019-04-07T20:13:40.631Z,93.00
2019-04-07T20:16:24.166Z,93.30
2019-04-07T20:19:06.591Z,93.00
2019-04-07T20:21:49.410Z,93.10
2019-04-07T20:24:47.371Z,93.20
2019-04-07T20:27:34.170Z,93.30
2019-04-07T20:30:16.208Z,93.20
2019-04-07T20:33:16.342Z,93.20
2019-04-07T20:35:57.454Z,92.90
2019-04-07T20:38:58.513Z,93.30
2019-04-07T20:41:54.916Z,93.20
2019-04-07T20:44:39.126Z,93.20
2019-04-07T20:47:26.681Z,93.50
2019-04-07T20:50:15.301Z,93.80
2019-04-07T20:53:10.119Z,93.50
2019-04-07T20:55:51.862Z,93.90
2019-04-07T20:58:53.022Z,94.70
2019-04-07T21:01:36.988Z,95.50
2019-04-07T21:04:19.936Z,95.30
2019-04-07T21:07:08.273Z,95.40
2019-04-07T21:09:48.030Z,94.60
2019-04-07T21:12:31.078Z,95.80
2019-04-07T21:15:21.249Z,95.30
2019-04-07T21:17:58.253Z,95.70
2019-04-07T21:20:41.989Z,95.90
2019-04-07T21:23:20.873Z,96.00
2019-04-07T21:26:00.357Z,96.20
2019-04-07T21:28:40.657Z,97.00
2019-04-07T21:31:35.225Z,97.50
2019-04-07T21:34:30.604Z,97.40
2019-04-07T21:37:27.338Z,97.90
2019-04-07T21:40:13.211Z,97.70
2019-04-07T21:43:11.402Z,97.70
2019-04-07T21:46:02.500Z,98.10
2019-04-07T21:48:41.608Z,98.80
2019-04-07T21:51:35.618Z,99.20
2019-04-07T21:54:14.508Z,99.40
2019-04-07T21:57:08.825Z,99.40
2019-04-07T22:00:06.140Z,99.70
2019-04-07T22:02:48.311Z,99.60
2019-04-07T22:05:45.390Z,99.30
2019-04-07T22:08:25.216Z,99.00
2019-04-07T22:11:03.610Z,98.70
2019-04-07T22:13:40.774Z,99.10
2019-04-07T22:16:18.567Z,98.70
2019-04-07T22:18:55.582Z,98.90
2019-04-07T22:21:32.778Z,98.90
2019-04-07T22:24:11.005Z,98.70
2019-04-07T22:26:50.191Z,99.10
2019-04-07T22:29:27.604Z,99.90
2019-04-07T22:32:05.323Z,99.90
2019-04-07T22:34:42.471Z,99.90
2019-04-07T22:37:21.155Z,99.90
2019-04-07T22:40:01.754Z,99.90
2019-04-07T22:42:37.199Z,99.90
2019-04-07T22:45:14.922Z,99.90
2019-04-07T22:47:52.860Z,99.90
2019-04-07T22:50:35.495Z,99.90
2019-04-07T22:53:09.557Z,99.90
2019-04-07T22:55:46.666Z,99.90
2019-04-07T22:58:24.263Z,99.90
2019-04-07T23:01:01.386Z,99.90
2019-04-07T23:03:39.109Z,99.80
2019-04-07T23:06:17.061Z,99.60
2019-04-07T23:08:54.266Z,99.90
2019-04-07T23:11:32.036Z,99.90
2019-04-07T23:14:09.539Z,99.90
2019-04-07T23:16:46.577Z,99.90
2019-04-07T23:19:23.743Z,99.90
2019-04-07T23:22:01.469Z,99.90
2019-04-07T23:24:39.046Z,99.90
2019-04-07T23:27:16.230Z,99.90
2019-04-07T23:29:53.346Z,99.90
2019-04-07T23:32:31.165Z,99.90
2019-04-07T23:35:08.401Z,99.90
2019-04-07T23:37:46.801Z,99.90
2019-04-07T23:40:23.872Z,99.90
2019-04-07T23:43:02.790Z,99.90
2019-04-07T23:45:39.983Z,99.90
2019-04-07T23:48:17.932Z,99.90
2019-04-07T23:50:56.310Z,99.90
2019-04-07T23:54:11.141Z,99.90
2019-04-07T23:56:48.326Z,99.90
2019-04-07T23:59:25.471Z,99.90
